sensor_id;sensor_type;location;lat;lon;timestamp;P1;durP1;ratioP1;P2;durP2;ratioP2
56005;SDS011;41888;44.696;10.522;2023-02-08T00:00:24;33.03;;;14.15;;
56005;SDS011;41888;44.696;10.522;2023-02-08T00:02:51;29.15;;;12.52;;
56005;SDS011;41888;44.696;10.522;2023-02-08T00:05:17;25.48;;;11.73;;
56005;SDS011;41888;44.696;10.522;2023-02-08T00:07:43;32.08;;;11.07;;
56005;SDS011;41888;44.696;10.522;2023-02-08T00:10:10;20.25;;;11.63;;
56005;SDS011;41888;44.696;10.522;2023-02-08T00:12:36;26.08;;;12.52;;
56005;SDS011;41888;44.696;10.522;2023-02-08T00:15:03;22.35;;;10.23;;
56005;SDS011;41888;44.696;10.522;2023-02-08T00:17:29;26.23;;;12.35;;
56005;SDS011;41888;44.696;10.522;2023-02-08T00:19:56;29.45;;;13.57;;
56005;SDS011;41888;44.696;10.522;2023-02-08T00:22:22;23.50;;;12.60;;
56005;SDS011;41888;44.696;10.522;2023-02-08T00:24:48;24.70;;;11.75;;
56005;SDS011;41888;44.696;10.522;2023-02-08T00:27:15;29.48;;;11.35;;
56005;SDS011;41888;44.696;10.522;2023-02-08T00:29:42;26.83;;;9.90;;
56005;SDS011;41888;44.696;10.522;2023-02-08T00:32:08;20.05;;;10.73;;
56005;SDS011;41888;44.696;10.522;2023-02-08T00:34:35;24.85;;;11.65;;
56005;SDS011;41888;44.696;10.522;2023-02-08T00:37:02;23.83;;;10.95;;
56005;SDS011;41888;44.696;10.522;2023-02-08T00:39:29;24.60;;;10.93;;
56005;SDS011;41888;44.696;10.522;2023-02-08T00:41:55;22.63;;;10.15;;
56005;SDS011;41888;44.696;10.522;2023-02-08T00:44:22;19.88;;;9.63;;
56005;SDS011;41888;44.696;10.522;2023-02-08T00:46:48;24.38;;;10.10;;
56005;SDS011;41888;44.696;10.522;2023-02-08T00:49:14;19.73;;;9.40;;
56005;SDS011;41888;44.696;10.522;2023-02-08T00:51:40;20.15;;;8.88;;
56005;SDS011;41888;44.696;10.522;2023-02-08T00:54:10;22.13;;;9.05;;
56005;SDS011;41888;44.696;10.522;2023-02-08T00:56:39;16.92;;;9.32;;
56005;SDS011;41888;44.696;10.522;2023-02-08T00:59:05;20.65;;;9.35;;
56005;SDS011;41888;44.696;10.522;2023-02-08T01:01:32;20.73;;;9.65;;
56005;SDS011;41888;44.696;10.522;2023-02-08T01:03:58;20.02;;;9.68;;
56005;SDS011;41888;44.696;10.522;2023-02-08T01:06:24;20.42;;;10.07;;
56005;SDS011;41888;44.696;10.522;2023-02-08T01:08:50;22.63;;;9.35;;
56005;SDS011;41888;44.696;10.522;2023-02-08T01:11:18;20.85;;;10.63;;
56005;SDS011;41888;44.696;10.522;2023-02-08T01:13:49;20.55;;;10.43;;
56005;SDS011;41888;44.696;10.522;2023-02-08T01:16:22;22.40;;;9.48;;
56005;SDS011;41888;44.696;10.522;2023-02-08T01:18:51;22.40;;;10.55;;
56005;SDS011;41888;44.696;10.522;2023-02-08T01:21:21;21.95;;;9.95;;
56005;SDS011;41888;44.696;10.522;2023-02-08T01:23:48;20.27;;;9.45;;
56005;SDS011;41888;44.696;10.522;2023-02-08T01:26:16;23.08;;;9.48;;
56005;SDS011;41888;44.696;10.522;2023-02-08T01:28:43;20.90;;;8.55;;
56005;SDS011;41888;44.696;10.522;2023-02-08T01:31:12;13.77;;;8.43;;
56005;SDS011;41888;44.696;10.522;2023-02-08T01:33:40;25.95;;;10.32;;
56005;SDS011;41888;44.696;10.522;2023-02-08T01:36:06;20.98;;;9.73;;
56005;SDS011;41888;44.696;10.522;2023-02-08T01:38:34;20.42;;;9.07;;
56005;SDS011;41888;44.696;10.522;2023-02-08T01:41:01;24.55;;;10.60;;
56005;SDS011;41888;44.696;10.522;2023-02-08T01:43:30;26.23;;;10.40;;
56005;SDS011;41888;44.696;10.522;2023-02-08T01:45:59;19.63;;;9.75;;
56005;SDS011;41888;44.696;10.522;2023-02-08T01:48:30;24.60;;;10.65;;
56005;SDS011;41888;44.696;10.522;2023-02-08T01:51:01;21.45;;;9.73;;
56005;SDS011;41888;44.696;10.522;2023-02-08T01:53:35;21.17;;;9.90;;
56005;SDS011;41888;44.696;10.522;2023-02-08T01:56:04;20.85;;;8.77;;
56005;SDS011;41888;44.696;10.522;2023-02-08T01:58:35;17.90;;;7.30;;
56005;SDS011;41888;44.696;10.522;2023-02-08T02:01:06;18.85;;;8.07;;
56005;SDS011;41888;44.696;10.522;2023-02-08T02:03:33;14.25;;;9.02;;
56005;SDS011;41888;44.696;10.522;2023-02-08T02:06:00;18.65;;;9.43;;
56005;SDS011;41888;44.696;10.522;2023-02-08T02:08:32;21.75;;;9.52;;
56005;SDS011;41888;44.696;10.522;2023-02-08T02:10:58;18.10;;;7.30;;
56005;SDS011;41888;44.696;10.522;2023-02-08T02:13:25;22.40;;;10.05;;
56005;SDS011;41888;44.696;10.522;2023-02-08T02:15:51;22.48;;;10.02;;
56005;SDS011;41888;44.696;10.522;2023-02-08T02:18:28;14.82;;;6.57;;
56005;SDS011;41888;44.696;10.522;2023-02-08T02:24:12;20.23;;;9.32;;
56005;SDS011;41888;44.696;10.522;2023-02-08T02:34:44;17.95;;;8.98;;
56005;SDS011;41888;44.696;10.522;2023-02-08T02:54:23;15.95;;;9.20;;
56005;SDS011;41888;44.696;10.522;2023-02-08T02:57:01;19.77;;;8.70;;
56005;SDS011;41888;44.696;10.522;2023-02-08T02:59:33;18.90;;;7.53;;
56005;SDS011;41888;44.696;10.522;2023-02-08T03:02:01;18.10;;;8.00;;
56005;SDS011;41888;44.696;10.522;2023-02-08T03:18:23;21.55;;;8.52;;
56005;SDS011;41888;44.696;10.522;2023-02-08T03:21:19;17.05;;;7.68;;
56005;SDS011;41888;44.696;10.522;2023-02-08T03:35:38;19.05;;;6.22;;
56005;SDS011;41888;44.696;10.522;2023-02-08T03:38:19;12.77;;;6.03;;
56005;SDS011;41888;44.696;10.522;2023-02-08T03:40:51;18.20;;;7.97;;
56005;SDS011;41888;44.696;10.522;2023-02-08T03:45:53;12.68;;;6.55;;
56005;SDS011;41888;44.696;10.522;2023-02-08T03:48:36;14.65;;;7.90;;
56005;SDS011;41888;44.696;10.522;2023-02-08T03:51:06;16.60;;;7.43;;
56005;SDS011;41888;44.696;10.522;2023-02-08T03:53:33;15.95;;;8.27;;
56005;SDS011;41888;44.696;10.522;2023-02-08T03:56:06;13.75;;;5.57;;
56005;SDS011;41888;44.696;10.522;2023-02-08T03:58:44;10.25;;;5.95;;
56005;SDS011;41888;44.696;10.522;2023-02-08T04:01:34;14.13;;;6.53;;
56005;SDS011;41888;44.696;10.522;2023-02-08T04:04:05;18.77;;;8.48;;
56005;SDS011;41888;44.696;10.522;2023-02-08T04:06:31;13.63;;;7.07;;
56005;SDS011;41888;44.696;10.522;2023-02-08T04:08:58;12.60;;;6.68;;
56005;SDS011;41888;44.696;10.522;2023-02-08T04:11:24;14.75;;;6.80;;
56005;SDS011;41888;44.696;10.522;2023-02-08T04:13:50;15.55;;;8.90;;
56005;SDS011;41888;44.696;10.522;2023-02-08T04:16:16;17.70;;;8.57;;
56005;SDS011;41888;44.696;10.522;2023-02-08T04:18:42;21.23;;;8.38;;
56005;SDS011;41888;44.696;10.522;2023-02-08T04:21:09;19.23;;;8.32;;
56005;SDS011;41888;44.696;10.522;2023-02-08T04:23:35;19.52;;;8.30;;
56005;SDS011;41888;44.696;10.522;2023-02-08T04:26:01;17.02;;;8.20;;
56005;SDS011;41888;44.696;10.522;2023-02-08T04:28:28;18.58;;;6.95;;
56005;SDS011;41888;44.696;10.522;2023-02-08T04:30:54;15.30;;;7.53;;
56005;SDS011;41888;44.696;10.522;2023-02-08T04:33:21;17.98;;;8.63;;
56005;SDS011;41888;44.696;10.522;2023-02-08T04:35:47;19.33;;;8.95;;
56005;SDS011;41888;44.696;10.522;2023-02-08T04:38:13;18.75;;;7.45;;
56005;SDS011;41888;44.696;10.522;2023-02-08T04:40:39;18.15;;;7.25;;
56005;SDS011;41888;44.696;10.522;2023-02-08T04:43:05;17.88;;;7.60;;
56005;SDS011;41888;44.696;10.522;2023-02-08T04:45:32;20.23;;;8.45;;
56005;SDS011;41888;44.696;10.522;2023-02-08T04:48:01;16.83;;;7.72;;
56005;SDS011;41888;44.696;10.522;2023-02-08T04:50:28;15.27;;;7.78;;
56005;SDS011;41888;44.696;10.522;2023-02-08T04:52:54;19.17;;;7.82;;
56005;SDS011;41888;44.696;10.522;2023-02-08T04:55:20;18.60;;;7.97;;
56005;SDS011;41888;44.696;10.522;2023-02-08T04:57:46;14.80;;;7.50;;
56005;SDS011;41888;44.696;10.522;2023-02-08T05:00:13;19.00;;;8.80;;
56005;SDS011;41888;44.696;10.522;2023-02-08T05:02:39;13.05;;;6.63;;
56005;SDS011;41888;44.696;10.522;2023-02-08T05:05:05;17.55;;;7.75;;
56005;SDS011;41888;44.696;10.522;2023-02-08T05:07:31;21.50;;;7.85;;
56005;SDS011;41888;44.696;10.522;2023-02-08T05:09:58;15.07;;;8.52;;
56005;SDS011;41888;44.696;10.522;2023-02-08T05:12:24;14.95;;;7.50;;
56005;SDS011;41888;44.696;10.522;2023-02-08T05:14:50;17.58;;;7.95;;
56005;SDS011;41888;44.696;10.522;2023-02-08T05:17:16;18.02;;;8.73;;
56005;SDS011;41888;44.696;10.522;2023-02-08T05:19:42;19.48;;;8.48;;
56005;SDS011;41888;44.696;10.522;2023-02-08T05:22:08;13.80;;;7.03;;
56005;SDS011;41888;44.696;10.522;2023-02-08T05:24:34;19.25;;;9.68;;
56005;SDS011;41888;44.696;10.522;2023-02-08T05:27:01;17.42;;;8.05;;
56005;SDS011;41888;44.696;10.522;2023-02-08T05:29:27;15.48;;;8.52;;
56005;SDS011;41888;44.696;10.522;2023-02-08T05:31:53;17.05;;;7.40;;
56005;SDS011;41888;44.696;10.522;2023-02-08T05:34:20;20.33;;;9.43;;
56005;SDS011;41888;44.696;10.522;2023-02-08T05:36:46;16.48;;;7.03;;
56005;SDS011;41888;44.696;10.522;2023-02-08T05:39:12;21.23;;;8.48;;
56005;SDS011;41888;44.696;10.522;2023-02-08T05:41:38;13.75;;;6.90;;
56005;SDS011;41888;44.696;10.522;2023-02-08T05:44:04;19.92;;;8.70;;
56005;SDS011;41888;44.696;10.522;2023-02-08T05:46:30;16.33;;;7.72;;
56005;SDS011;41888;44.696;10.522;2023-02-08T05:48:56;19.27;;;7.50;;
56005;SDS011;41888;44.696;10.522;2023-02-08T05:51:23;16.23;;;7.18;;
56005;SDS011;41888;44.696;10.522;2023-02-08T05:53:49;10.50;;;6.05;;
56005;SDS011;41888;44.696;10.522;2023-02-08T05:56:15;14.90;;;7.65;;
56005;SDS011;41888;44.696;10.522;2023-02-08T05:58:41;18.98;;;7.57;;
56005;SDS011;41888;44.696;10.522;2023-02-08T06:01:08;21.60;;;7.85;;
56005;SDS011;41888;44.696;10.522;2023-02-08T06:03:36;17.17;;;8.80;;
56005;SDS011;41888;44.696;10.522;2023-02-08T06:06:03;20.52;;;7.70;;
56005;SDS011;41888;44.696;10.522;2023-02-08T06:08:30;18.00;;;7.15;;
56005;SDS011;41888;44.696;10.522;2023-02-08T06:10:56;14.57;;;7.25;;
56005;SDS011;41888;44.696;10.522;2023-02-08T06:13:22;14.63;;;6.68;;
56005;SDS011;41888;44.696;10.522;2023-02-08T06:15:48;12.48;;;6.97;;
56005;SDS011;41888;44.696;10.522;2023-02-08T06:18:14;14.27;;;7.53;;
56005;SDS011;41888;44.696;10.522;2023-02-08T06:20:40;17.08;;;8.48;;
56005;SDS011;41888;44.696;10.522;2023-02-08T06:23:07;23.92;;;8.00;;
56005;SDS011;41888;44.696;10.522;2023-02-08T06:25:33;16.88;;;7.72;;
56005;SDS011;41888;44.696;10.522;2023-02-08T06:27:59;19.52;;;8.55;;
56005;SDS011;41888;44.696;10.522;2023-02-08T06:30:25;21.08;;;9.45;;
56005;SDS011;41888;44.696;10.522;2023-02-08T06:32:51;21.17;;;8.40;;
56005;SDS011;41888;44.696;10.522;2023-02-08T06:35:18;17.15;;;7.97;;
56005;SDS011;41888;44.696;10.522;2023-02-08T06:37:44;17.05;;;8.60;;
56005;SDS011;41888;44.696;10.522;2023-02-08T06:40:10;21.10;;;8.55;;
56005;SDS011;41888;44.696;10.522;2023-02-08T06:42:36;21.80;;;8.30;;
56005;SDS011;41888;44.696;10.522;2023-02-08T06:45:03;19.08;;;8.02;;
56005;SDS011;41888;44.696;10.522;2023-02-08T06:47:30;20.20;;;8.10;;
56005;SDS011;41888;44.696;10.522;2023-02-08T06:49:56;17.17;;;7.53;;
56005;SDS011;41888;44.696;10.522;2023-02-08T06:52:22;17.95;;;8.73;;
56005;SDS011;41888;44.696;10.522;2023-02-08T06:54:48;17.23;;;7.70;;
56005;SDS011;41888;44.696;10.522;2023-02-08T06:57:14;18.88;;;7.85;;
56005;SDS011;41888;44.696;10.522;2023-02-08T06:59:41;17.55;;;8.73;;
56005;SDS011;41888;44.696;10.522;2023-02-08T07:02:14;17.17;;;8.05;;
56005;SDS011;41888;44.696;10.522;2023-02-08T07:04:42;18.75;;;8.48;;
56005;SDS011;41888;44.696;10.522;2023-02-08T07:07:10;17.00;;;8.60;;
56005;SDS011;41888;44.696;10.522;2023-02-08T07:09:37;17.73;;;8.43;;
56005;SDS011;41888;44.696;10.522;2023-02-08T07:12:03;18.15;;;8.25;;
56005;SDS011;41888;44.696;10.522;2023-02-08T07:14:31;12.18;;;7.55;;
56005;SDS011;41888;44.696;10.522;2023-02-08T07:16:58;19.38;;;9.95;;
56005;SDS011;41888;44.696;10.522;2023-02-08T07:19:25;11.57;;;5.95;;
56005;SDS011;41888;44.696;10.522;2023-02-08T07:21:52;16.90;;;8.90;;
56005;SDS011;41888;44.696;10.522;2023-02-08T07:24:18;19.02;;;8.93;;
56005;SDS011;41888;44.696;10.522;2023-02-08T07:26:44;15.65;;;8.40;;
56005;SDS011;41888;44.696;10.522;2023-02-08T07:29:10;20.70;;;8.82;;
56005;SDS011;41888;44.696;10.522;2023-02-08T07:31:36;24.83;;;9.82;;
56005;SDS011;41888;44.696;10.522;2023-02-08T07:34:03;24.17;;;10.43;;
56005;SDS011;41888;44.696;10.522;2023-02-08T07:36:29;18.90;;;9.23;;
56005;SDS011;41888;44.696;10.522;2023-02-08T07:38:55;15.63;;;9.50;;
56005;SDS011;41888;44.696;10.522;2023-02-08T07:41:21;18.40;;;10.07;;
56005;SDS011;41888;44.696;10.522;2023-02-08T07:43:48;18.10;;;9.32;;
56005;SDS011;41888;44.696;10.522;2023-02-08T07:46:18;17.25;;;8.73;;
56005;SDS011;41888;44.696;10.522;2023-02-08T07:48:45;19.77;;;9.20;;
56005;SDS011;41888;44.696;10.522;2023-02-08T07:51:16;17.15;;;8.95;;
56005;SDS011;41888;44.696;10.522;2023-02-08T07:53:43;19.48;;;9.00;;
56005;SDS011;41888;44.696;10.522;2023-02-08T07:56:09;18.25;;;9.23;;
56005;SDS011;41888;44.696;10.522;2023-02-08T07:58:35;18.30;;;9.65;;
56005;SDS011;41888;44.696;10.522;2023-02-08T08:01:02;18.15;;;8.57;;
56005;SDS011;41888;44.696;10.522;2023-02-08T08:03:28;20.35;;;9.43;;
56005;SDS011;41888;44.696;10.522;2023-02-08T08:05:54;19.58;;;10.02;;
56005;SDS011;41888;44.696;10.522;2023-02-08T08:08:21;23.48;;;11.65;;
56005;SDS011;41888;44.696;10.522;2023-02-08T08:10:47;19.85;;;9.45;;
56005;SDS011;41888;44.696;10.522;2023-02-08T08:13:13;22.65;;;9.27;;
56005;SDS011;41888;44.696;10.522;2023-02-08T08:15:40;21.23;;;10.32;;
56005;SDS011;41888;44.696;10.522;2023-02-08T08:18:06;18.95;;;9.77;;
56005;SDS011;41888;44.696;10.522;2023-02-08T08:20:32;18.23;;;9.75;;
56005;SDS011;41888;44.696;10.522;2023-02-08T08:22:59;25.02;;;10.80;;
56005;SDS011;41888;44.696;10.522;2023-02-08T08:25:25;20.40;;;9.82;;
56005;SDS011;41888;44.696;10.522;2023-02-08T08:27:52;21.58;;;9.55;;
56005;SDS011;41888;44.696;10.522;2023-02-08T08:30:18;20.35;;;10.13;;
56005;SDS011;41888;44.696;10.522;2023-02-08T08:32:45;17.52;;;8.70;;
56005;SDS011;41888;44.696;10.522;2023-02-08T08:35:12;18.23;;;8.95;;
56005;SDS011;41888;44.696;10.522;2023-02-08T08:37:38;21.85;;;10.20;;
56005;SDS011;41888;44.696;10.522;2023-02-08T08:40:05;17.30;;;9.85;;
56005;SDS011;41888;44.696;10.522;2023-02-08T08:42:32;22.23;;;10.48;;
56005;SDS011;41888;44.696;10.522;2023-02-08T08:44:59;23.83;;;11.23;;
56005;SDS011;41888;44.696;10.522;2023-02-08T08:47:25;25.95;;;10.32;;
56005;SDS011;41888;44.696;10.522;2023-02-08T08:49:51;20.88;;;10.85;;
56005;SDS011;41888;44.696;10.522;2023-02-08T08:52:17;20.33;;;10.73;;
56005;SDS011;41888;44.696;10.522;2023-02-08T08:54:43;20.10;;;9.75;;
56005;SDS011;41888;44.696;10.522;2023-02-08T08:57:09;20.40;;;10.15;;
56005;SDS011;41888;44.696;10.522;2023-02-08T08:59:36;20.77;;;10.93;;
56005;SDS011;41888;44.696;10.522;2023-02-08T09:02:02;24.25;;;12.43;;
56005;SDS011;41888;44.696;10.522;2023-02-08T09:04:28;22.40;;;11.07;;
56005;SDS011;41888;44.696;10.522;2023-02-08T09:06:54;18.75;;;10.00;;
56005;SDS011;41888;44.696;10.522;2023-02-08T09:09:21;16.52;;;9.70;;
56005;SDS011;41888;44.696;10.522;2023-02-08T09:11:47;18.75;;;10.55;;
56005;SDS011;41888;44.696;10.522;2023-02-08T09:14:14;16.73;;;10.48;;
56005;SDS011;41888;44.696;10.522;2023-02-08T09:16:41;21.30;;;10.82;;
56005;SDS011;41888;44.696;10.522;2023-02-08T09:19:11;21.08;;;11.38;;
56005;SDS011;41888;44.696;10.522;2023-02-08T09:21:38;17.73;;;10.18;;
56005;SDS011;41888;44.696;10.522;2023-02-08T09:24:04;19.23;;;10.23;;
56005;SDS011;41888;44.696;10.522;2023-02-08T09:26:31;20.10;;;10.38;;
56005;SDS011;41888;44.696;10.522;2023-02-08T09:28:58;19.00;;;10.60;;
56005;SDS011;41888;44.696;10.522;2023-02-08T09:31:25;18.48;;;10.57;;
56005;SDS011;41888;44.696;10.522;2023-02-08T09:33:58;18.45;;;10.52;;
56005;SDS011;41888;44.696;10.522;2023-02-08T09:36:27;15.32;;;9.43;;
56005;SDS011;41888;44.696;10.522;2023-02-08T09:39:00;19.80;;;10.88;;
56005;SDS011;41888;44.696;10.522;2023-02-08T09:41:54;15.57;;;9.85;;
56005;SDS011;41888;44.696;10.522;2023-02-08T09:44:50;17.80;;;10.32;;
56005;SDS011;41888;44.696;10.522;2023-02-08T09:47:36;30.15;;;11.90;;
56005;SDS011;41888;44.696;10.522;2023-02-08T09:52:50;16.17;;;10.82;;
56005;SDS011;41888;44.696;10.522;2023-02-08T10:01:31;19.67;;;11.10;;
56005;SDS011;41888;44.696;10.522;2023-02-08T10:06:38;19.23;;;10.70;;
56005;SDS011;41888;44.696;10.522;2023-02-08T10:09:05;20.83;;;11.73;;
56005;SDS011;41888;44.696;10.522;2023-02-08T10:11:48;17.65;;;10.60;;
56005;SDS011;41888;44.696;10.522;2023-02-08T10:17:20;16.10;;;10.73;;
56005;SDS011;41888;44.696;10.522;2023-02-08T10:30:56;18.92;;;11.48;;
56005;SDS011;41888;44.696;10.522;2023-02-08T10:36:30;17.92;;;10.20;;
56005;SDS011;41888;44.696;10.522;2023-02-08T10:38:59;20.65;;;11.63;;
56005;SDS011;41888;44.696;10.522;2023-02-08T10:41:32;19.45;;;11.82;;
56005;SDS011;41888;44.696;10.522;2023-02-08T10:46:53;19.85;;;11.10;;
56005;SDS011;41888;44.696;10.522;2023-02-08T10:52:04;20.58;;;11.88;;
56005;SDS011;41888;44.696;10.522;2023-02-08T10:54:32;21.02;;;12.00;;
56005;SDS011;41888;44.696;10.522;2023-02-08T10:56:59;20.77;;;11.10;;
56005;SDS011;41888;44.696;10.522;2023-02-08T10:59:50;18.70;;;11.27;;
56005;SDS011;41888;44.696;10.522;2023-02-08T11:02:32;22.30;;;11.88;;
56005;SDS011;41888;44.696;10.522;2023-02-08T11:07:36;21.85;;;11.40;;
56005;SDS011;41888;44.696;10.522;2023-02-08T11:10:13;23.40;;;10.77;;
56005;SDS011;41888;44.696;10.522;2023-02-08T11:12:52;20.88;;;11.80;;
56005;SDS011;41888;44.696;10.522;2023-02-08T11:15:21;25.65;;;12.50;;
56005;SDS011;41888;44.696;10.522;2023-02-08T11:17:57;22.15;;;12.23;;
56005;SDS011;41888;44.696;10.522;2023-02-08T11:20:28;21.55;;;11.90;;
56005;SDS011;41888;44.696;10.522;2023-02-08T11:23:01;18.88;;;12.20;;
56005;SDS011;41888;44.696;10.522;2023-02-08T11:25:31;18.98;;;10.50;;
56005;SDS011;41888;44.696;10.522;2023-02-08T11:27:59;24.25;;;12.10;;
56005;SDS011;41888;44.696;10.522;2023-02-08T11:30:26;19.15;;;10.48;;
56005;SDS011;41888;44.696;10.522;2023-02-08T11:35:39;25.33;;;10.82;;
56005;SDS011;41888;44.696;10.522;2023-02-08T11:38:05;20.80;;;11.70;;
56005;SDS011;41888;44.696;10.522;2023-02-08T11:40:43;24.65;;;12.18;;
56005;SDS011;41888;44.696;10.522;2023-02-08T11:46:06;22.38;;;11.95;;
56005;SDS011;41888;44.696;10.522;2023-02-08T11:48:37;20.10;;;10.90;;
56005;SDS011;41888;44.696;10.522;2023-02-08T11:51:07;21.17;;;11.67;;
56005;SDS011;41888;44.696;10.522;2023-02-08T11:53:38;22.05;;;12.40;;
56005;SDS011;41888;44.696;10.522;2023-02-08T11:56:26;24.00;;;12.20;;
56005;SDS011;41888;44.696;10.522;2023-02-08T11:58:57;25.80;;;13.47;;
56005;SDS011;41888;44.696;10.522;2023-02-08T12:01:31;26.35;;;13.15;;
56005;SDS011;41888;44.696;10.522;2023-02-08T12:04:00;23.50;;;11.95;;
56005;SDS011;41888;44.696;10.522;2023-02-08T12:06:33;22.48;;;11.95;;
56005;SDS011;41888;44.696;10.522;2023-02-08T12:11:45;24.15;;;12.88;;
56005;SDS011;41888;44.696;10.522;2023-02-08T12:27:38;18.50;;;10.93;;
56005;SDS011;41888;44.696;10.522;2023-02-08T12:30:36;25.15;;;11.63;;
56005;SDS011;41888;44.696;10.522;2023-02-08T12:38:37;21.83;;;10.77;;
56005;SDS011;41888;44.696;10.522;2023-02-08T12:41:29;26.60;;;11.80;;
56005;SDS011;41888;44.696;10.522;2023-02-08T12:49:27;21.65;;;11.45;;
56005;SDS011;41888;44.696;10.522;2023-02-08T12:57:46;24.58;;;12.23;;
56005;SDS011;41888;44.696;10.522;2023-02-08T13:02:45;26.58;;;11.63;;
56005;SDS011;41888;44.696;10.522;2023-02-08T13:05:34;23.70;;;11.65;;
56005;SDS011;41888;44.696;10.522;2023-02-08T13:08:22;19.17;;;10.77;;
56005;SDS011;41888;44.696;10.522;2023-02-08T13:11:03;23.80;;;12.90;;
56005;SDS011;41888;44.696;10.522;2023-02-08T13:13:38;24.35;;;11.68;;
56005;SDS011;41888;44.696;10.522;2023-02-08T13:16:18;25.33;;;12.20;;
56005;SDS011;41888;44.696;10.522;2023-02-08T13:18:53;27.17;;;12.75;;
56005;SDS011;41888;44.696;10.522;2023-02-08T13:21:27;26.10;;;11.75;;
56005;SDS011;41888;44.696;10.522;2023-02-08T13:23:56;25.45;;;13.13;;
56005;SDS011;41888;44.696;10.522;2023-02-08T13:26:27;26.73;;;14.15;;
56005;SDS011;41888;44.696;10.522;2023-02-08T13:28:57;24.85;;;11.85;;
56005;SDS011;41888;44.696;10.522;2023-02-08T13:31:32;26.00;;;13.23;;
56005;SDS011;41888;44.696;10.522;2023-02-08T13:34:04;24.08;;;13.98;;
56005;SDS011;41888;44.696;10.522;2023-02-08T13:36:48;30.88;;;14.52;;
56005;SDS011;41888;44.696;10.522;2023-02-08T13:39:38;24.45;;;12.65;;
56005;SDS011;41888;44.696;10.522;2023-02-08T13:42:16;21.65;;;13.38;;
56005;SDS011;41888;44.696;10.522;2023-02-08T13:44:50;23.73;;;13.98;;
56005;SDS011;41888;44.696;10.522;2023-02-08T13:47:26;27.45;;;13.55;;
56005;SDS011;41888;44.696;10.522;2023-02-08T13:49:59;28.08;;;13.98;;
56005;SDS011;41888;44.696;10.522;2023-02-08T13:57:55;28.92;;;14.20;;
56005;SDS011;41888;44.696;10.522;2023-02-08T14:00:59;29.17;;;13.90;;
56005;SDS011;41888;44.696;10.522;2023-02-08T14:03:29;31.10;;;13.48;;
56005;SDS011;41888;44.696;10.522;2023-02-08T14:09:00;22.65;;;11.88;;
56005;SDS011;41888;44.696;10.522;2023-02-08T14:14:30;20.30;;;10.88;;
56005;SDS011;41888;44.696;10.522;2023-02-08T14:17:18;24.25;;;12.32;;
56005;SDS011;41888;44.696;10.522;2023-02-08T14:19:55;29.83;;;11.95;;
56005;SDS011;41888;44.696;10.522;2023-02-08T14:22:33;25.88;;;13.13;;
56005;SDS011;41888;44.696;10.522;2023-02-08T14:25:25;25.40;;;12.82;;
56005;SDS011;41888;44.696;10.522;2023-02-08T14:27:58;25.75;;;12.63;;
56005;SDS011;41888;44.696;10.522;2023-02-08T14:30:28;22.27;;;10.60;;
56005;SDS011;41888;44.696;10.522;2023-02-08T14:35:32;21.73;;;9.82;;
56005;SDS011;41888;44.696;10.522;2023-02-08T14:49:01;19.58;;;8.80;;
56005;SDS011;41888;44.696;10.522;2023-02-08T14:51:49;23.13;;;10.10;;
56005;SDS011;41888;44.696;10.522;2023-02-08T14:54:24;26.02;;;10.68;;
56005;SDS011;41888;44.696;10.522;2023-02-08T14:59:49;24.00;;;11.57;;
56005;SDS011;41888;44.696;10.522;2023-02-08T15:02:21;23.25;;;10.00;;
56005;SDS011;41888;44.696;10.522;2023-02-08T15:04:50;26.45;;;11.63;;
56005;SDS011;41888;44.696;10.522;2023-02-08T15:07:21;30.33;;;12.18;;
56005;SDS011;41888;44.696;10.522;2023-02-08T15:09:50;27.52;;;10.85;;
56005;SDS011;41888;44.696;10.522;2023-02-08T15:14:52;25.13;;;11.93;;
56005;SDS011;41888;44.696;10.522;2023-02-08T15:17:27;23.83;;;11.15;;
56005;SDS011;41888;44.696;10.522;2023-02-08T15:19:58;23.35;;;11.13;;
56005;SDS011;41888;44.696;10.522;2023-02-08T15:24:56;23.73;;;11.05;;
56005;SDS011;41888;44.696;10.522;2023-02-08T15:27:29;24.40;;;11.52;;
56005;SDS011;41888;44.696;10.522;2023-02-08T15:29:56;22.73;;;10.65;;
56005;SDS011;41888;44.696;10.522;2023-02-08T15:32:25;23.02;;;9.75;;
56005;SDS011;41888;44.696;10.522;2023-02-08T15:34:54;19.58;;;8.73;;
56005;SDS011;41888;44.696;10.522;2023-02-08T15:37:26;20.70;;;8.88;;
56005;SDS011;41888;44.696;10.522;2023-02-08T15:39:57;20.50;;;8.93;;
56005;SDS011;41888;44.696;10.522;2023-02-08T15:42:26;24.48;;;9.32;;
56005;SDS011;41888;44.696;10.522;2023-02-08T15:44:53;20.80;;;9.60;;
56005;SDS011;41888;44.696;10.522;2023-02-08T15:47:31;22.75;;;9.48;;
56005;SDS011;41888;44.696;10.522;2023-02-08T15:49:59;19.85;;;8.40;;
56005;SDS011;41888;44.696;10.522;2023-02-08T15:52:32;21.15;;;9.95;;
56005;SDS011;41888;44.696;10.522;2023-02-08T15:55:01;20.58;;;8.73;;
56005;SDS011;41888;44.696;10.522;2023-02-08T15:57:37;19.50;;;10.38;;
56005;SDS011;41888;44.696;10.522;2023-02-08T16:00:05;24.98;;;11.48;;
56005;SDS011;41888;44.696;10.522;2023-02-08T16:02:39;20.65;;;9.88;;
56005;SDS011;41888;44.696;10.522;2023-02-08T16:05:11;24.33;;;9.98;;
56005;SDS011;41888;44.696;10.522;2023-02-08T16:07:56;18.95;;;10.25;;
56005;SDS011;41888;44.696;10.522;2023-02-08T16:10:34;23.00;;;11.32;;
56005;SDS011;41888;44.696;10.522;2023-02-08T16:13:16;25.55;;;10.35;;
56005;SDS011;41888;44.696;10.522;2023-02-08T16:15:44;21.95;;;10.77;;
56005;SDS011;41888;44.696;10.522;2023-02-08T16:20:57;44.58;;;16.95;;
56005;SDS011;41888;44.696;10.522;2023-02-08T16:23:25;31.85;;;14.00;;
56005;SDS011;41888;44.696;10.522;2023-02-08T16:25:54;28.33;;;11.77;;
56005;SDS011;41888;44.696;10.522;2023-02-08T16:28:29;34.08;;;14.63;;
56005;SDS011;41888;44.696;10.522;2023-02-08T16:30:58;30.48;;;15.10;;
56005;SDS011;41888;44.696;10.522;2023-02-08T16:33:26;25.42;;;11.65;;
56005;SDS011;41888;44.696;10.522;2023-02-08T16:35:54;24.33;;;12.20;;
56005;SDS011;41888;44.696;10.522;2023-02-08T16:38:26;27.05;;;13.20;;
56005;SDS011;41888;44.696;10.522;2023-02-08T16:40:55;25.63;;;10.90;;
56005;SDS011;41888;44.696;10.522;2023-02-08T16:43:36;21.45;;;12.13;;
56005;SDS011;41888;44.696;10.522;2023-02-08T16:48:34;29.20;;;11.13;;
56005;SDS011;41888;44.696;10.522;2023-02-08T16:51:05;28.42;;;12.10;;
56005;SDS011;41888;44.696;10.522;2023-02-08T16:53:36;26.08;;;12.18;;
56005;SDS011;41888;44.696;10.522;2023-02-08T16:56:02;26.00;;;10.65;;
56005;SDS011;41888;44.696;10.522;2023-02-08T16:58:29;31.17;;;14.30;;
56005;SDS011;41888;44.696;10.522;2023-02-08T17:00:55;31.50;;;11.52;;
56005;SDS011;41888;44.696;10.522;2023-02-08T17:03:21;25.45;;;10.23;;
56005;SDS011;41888;44.696;10.522;2023-02-08T17:05:47;22.15;;;9.88;;
56005;SDS011;41888;44.696;10.522;2023-02-08T17:08:15;27.17;;;10.75;;
56005;SDS011;41888;44.696;10.522;2023-02-08T17:10:43;26.13;;;10.52;;
56005;SDS011;41888;44.696;10.522;2023-02-08T17:13:12;24.67;;;11.65;;
56005;SDS011;41888;44.696;10.522;2023-02-08T17:15:39;34.42;;;15.57;;
56005;SDS011;41888;44.696;10.522;2023-02-08T17:18:05;30.63;;;12.77;;
56005;SDS011;41888;44.696;10.522;2023-02-08T17:20:32;29.38;;;11.55;;
56005;SDS011;41888;44.696;10.522;2023-02-08T17:23:00;28.67;;;10.18;;